sensor_id;sensor_type;location;lat;lon;timestamp;P1;durP1;ratioP1;P2;durP2;ratioP2
24439;SDS011;12618;54.386;18.394;2022-11-23T00:03:47;80.90;;;31.97;;
24439;SDS011;12618;54.386;18.394;2022-11-23T00:06:19;77.82;;;31.05;;
24439;SDS011;12618;54.386;18.394;2022-11-23T00:08:51;78.57;;;31.65;;
24439;SDS011;12618;54.386;18.394;2022-11-23T00:11:23;80.83;;;31.00;;
24439;SDS011;12618;54.386;18.394;2022-11-23T00:13:55;73.52;;;29.40;;
24439;SDS011;12618;54.386;18.394;2022-11-23T00:16:27;72.62;;;30.52;;
24439;SDS011;12618;54.386;18.394;2022-11-23T00:18:59;81.57;;;31.62;;
24439;SDS011;12618;54.386;18.394;2022-11-23T00:21:31;80.40;;;31.70;;
24439;SDS011;12618;54.386;18.394;2022-11-23T00:24:02;81.12;;;31.25;;
24439;SDS011;12618;54.386;18.394;2022-11-23T00:26:33;75.62;;;29.37;;
24439;SDS011;12618;54.386;18.394;2022-11-23T00:29:04;76.77;;;32.20;;
24439;SDS011;12618;54.386;18.394;2022-11-23T00:31:35;78.28;;;30.08;;
24439;SDS011;12618;54.386;18.394;2022-11-23T00:34:06;74.90;;;30.45;;
24439;SDS011;12618;54.386;18.394;2022-11-23T00:36:36;75.65;;;29.77;;
24439;SDS011;12618;54.386;18.394;2022-11-23T00:39:07;70.75;;;28.75;;
24439;SDS011;12618;54.386;18.394;2022-11-23T00:41:38;77.60;;;30.85;;
24439;SDS011;12618;54.386;18.394;2022-11-23T00:44:08;81.10;;;30.82;;
24439;SDS011;12618;54.386;18.394;2022-11-23T00:46:39;79.15;;;30.60;;
24439;SDS011;12618;54.386;18.394;2022-11-23T00:49:10;73.52;;;29.95;;
24439;SDS011;12618;54.386;18.394;2022-11-23T00:51:40;74.60;;;30.08;;
24439;SDS011;12618;54.386;18.394;2022-11-23T00:54:11;80.87;;;30.45;;
24439;SDS011;12618;54.386;18.394;2022-11-23T00:56:42;75.72;;;30.45;;
24439;SDS011;12618;54.386;18.394;2022-11-23T00:59:13;79.05;;;31.82;;
24439;SDS011;12618;54.386;18.394;2022-11-23T01:01:44;71.15;;;30.02;;
24439;SDS011;12618;54.386;18.394;2022-11-23T01:04:14;70.55;;;29.55;;
24439;SDS011;12618;54.386;18.394;2022-11-23T01:06:45;67.97;;;29.00;;
24439;SDS011;12618;54.386;18.394;2022-11-23T01:09:16;74.90;;;30.68;;
24439;SDS011;12618;54.386;18.394;2022-11-23T01:11:48;71.65;;;31.55;;
24439;SDS011;12618;54.386;18.394;2022-11-23T01:14:20;70.37;;;30.05;;
24439;SDS011;12618;54.386;18.394;2022-11-23T01:16:51;67.50;;;27.58;;
24439;SDS011;12618;54.386;18.394;2022-11-23T01:19:22;72.60;;;30.05;;
24439;SDS011;12618;54.386;18.394;2022-11-23T01:21:54;72.47;;;30.32;;
24439;SDS011;12618;54.386;18.394;2022-11-23T01:24:24;71.10;;;31.12;;
24439;SDS011;12618;54.386;18.394;2022-11-23T01:26:55;73.12;;;30.77;;
24439;SDS011;12618;54.386;18.394;2022-11-23T01:29:26;71.25;;;29.50;;
24439;SDS011;12618;54.386;18.394;2022-11-23T01:31:58;66.13;;;29.73;;
24439;SDS011;12618;54.386;18.394;2022-11-23T01:34:29;75.78;;;30.25;;
24439;SDS011;12618;54.386;18.394;2022-11-23T01:37:00;71.07;;;29.35;;
24439;SDS011;12618;54.386;18.394;2022-11-23T01:39:30;67.92;;;30.02;;
24439;SDS011;12618;54.386;18.394;2022-11-23T01:42:01;71.95;;;29.82;;
24439;SDS011;12618;54.386;18.394;2022-11-23T01:44:35;75.97;;;31.68;;
24439;SDS011;12618;54.386;18.394;2022-11-23T01:47:08;70.72;;;30.82;;
24439;SDS011;12618;54.386;18.394;2022-11-23T01:49:41;70.60;;;30.27;;
24439;SDS011;12618;54.386;18.394;2022-11-23T01:52:14;72.17;;;29.90;;
24439;SDS011;12618;54.386;18.394;2022-11-23T01:54:48;74.10;;;31.60;;
24439;SDS011;12618;54.386;18.394;2022-11-23T01:57:22;70.83;;;30.52;;
24439;SDS011;12618;54.386;18.394;2022-11-23T01:59:58;69.55;;;30.70;;
24439;SDS011;12618;54.386;18.394;2022-11-23T02:02:29;70.97;;;30.55;;
24439;SDS011;12618;54.386;18.394;2022-11-23T02:05:04;79.27;;;31.90;;
24439;SDS011;12618;54.386;18.394;2022-11-23T02:07:35;72.32;;;31.35;;
24439;SDS011;12618;54.386;18.394;2022-11-23T02:10:07;70.08;;;30.77;;
24439;SDS011;12618;54.386;18.394;2022-11-23T02:12:38;70.10;;;30.20;;
24439;SDS011;12618;54.386;18.394;2022-11-23T02:15:09;69.70;;;30.10;;
24439;SDS011;12618;54.386;18.394;2022-11-23T02:17:40;74.32;;;31.70;;
24439;SDS011;12618;54.386;18.394;2022-11-23T02:20:13;76.72;;;32.53;;
24439;SDS011;12618;54.386;18.394;2022-11-23T02:28:22;80.30;;;33.18;;
24439;SDS011;12618;54.386;18.394;2022-11-23T02:30:58;80.38;;;33.73;;
24439;SDS011;12618;54.386;18.394;2022-11-23T02:33:30;75.40;;;32.75;;
24439;SDS011;12618;54.386;18.394;2022-11-23T02:36:01;72.45;;;31.40;;
24439;SDS011;12618;54.386;18.394;2022-11-23T02:38:34;75.17;;;32.25;;
24439;SDS011;12618;54.386;18.394;2022-11-23T02:41:07;79.80;;;32.73;;
24439;SDS011;12618;54.386;18.394;2022-11-23T02:43:38;78.00;;;32.70;;
24439;SDS011;12618;54.386;18.394;2022-11-23T02:46:09;79.12;;;33.70;;
24439;SDS011;12618;54.386;18.394;2022-11-23T02:48:42;60.80;;;24.77;;
24439;SDS011;12618;54.386;18.394;2022-11-23T02:51:13;73.25;;;30.82;;
24439;SDS011;12618;54.386;18.394;2022-11-23T02:53:44;75.37;;;31.77;;
24439;SDS011;12618;54.386;18.394;2022-11-23T02:56:14;75.55;;;31.48;;
24439;SDS011;12618;54.386;18.394;2022-11-23T02:58:45;76.00;;;31.77;;
24439;SDS011;12618;54.386;18.394;2022-11-23T03:01:16;74.72;;;32.15;;
24439;SDS011;12618;54.386;18.394;2022-11-23T03:03:46;76.40;;;31.33;;
24439;SDS011;12618;54.386;18.394;2022-11-23T03:06:17;73.10;;;31.30;;
24439;SDS011;12618;54.386;18.394;2022-11-23T03:08:48;81.80;;;32.90;;
24439;SDS011;12618;54.386;18.394;2022-11-23T03:11:19;72.72;;;31.20;;
24439;SDS011;12618;54.386;18.394;2022-11-23T03:13:49;75.40;;;31.85;;
24439;SDS011;12618;54.386;18.394;2022-11-23T03:16:22;77.60;;;32.70;;
24439;SDS011;12618;54.386;18.394;2022-11-23T03:18:53;71.55;;;30.62;;
24439;SDS011;12618;54.386;18.394;2022-11-23T03:21:24;79.45;;;33.88;;
24439;SDS011;12618;54.386;18.394;2022-11-23T03:23:55;76.50;;;32.45;;
24439;SDS011;12618;54.386;18.394;2022-11-23T03:26:26;75.08;;;33.02;;
24439;SDS011;12618;54.386;18.394;2022-11-23T03:28:56;83.37;;;34.10;;
24439;SDS011;12618;54.386;18.394;2022-11-23T03:31:27;79.85;;;32.40;;
24439;SDS011;12618;54.386;18.394;2022-11-23T03:33:57;77.97;;;32.83;;
24439;SDS011;12618;54.386;18.394;2022-11-23T03:36:28;81.75;;;33.28;;
24439;SDS011;12618;54.386;18.394;2022-11-23T03:38:59;85.12;;;33.55;;
24439;SDS011;12618;54.386;18.394;2022-11-23T03:41:30;87.30;;;34.75;;
24439;SDS011;12618;54.386;18.394;2022-11-23T03:44:00;79.67;;;33.85;;
24439;SDS011;12618;54.386;18.394;2022-11-23T03:46:31;83.07;;;33.63;;
24439;SDS011;12618;54.386;18.394;2022-11-23T03:49:02;82.22;;;33.60;;
24439;SDS011;12618;54.386;18.394;2022-11-23T03:51:33;80.77;;;33.38;;
24439;SDS011;12618;54.386;18.394;2022-11-23T03:54:04;82.78;;;32.60;;
24439;SDS011;12618;54.386;18.394;2022-11-23T03:56:34;81.32;;;33.53;;
24439;SDS011;12618;54.386;18.394;2022-11-23T03:59:05;77.40;;;32.83;;
24439;SDS011;12618;54.386;18.394;2022-11-23T04:01:36;83.25;;;33.45;;
24439;SDS011;12618;54.386;18.394;2022-11-23T04:04:07;76.85;;;32.88;;
24439;SDS011;12618;54.386;18.394;2022-11-23T04:06:37;81.10;;;33.15;;
24439;SDS011;12618;54.386;18.394;2022-11-23T04:09:08;76.50;;;31.73;;
24439;SDS011;12618;54.386;18.394;2022-11-23T04:11:41;79.45;;;32.45;;
24439;SDS011;12618;54.386;18.394;2022-11-23T04:14:12;74.42;;;31.50;;
24439;SDS011;12618;54.386;18.394;2022-11-23T04:16:42;68.65;;;30.52;;
24439;SDS011;12618;54.386;18.394;2022-11-23T04:19:13;76.45;;;32.08;;
24439;SDS011;12618;54.386;18.394;2022-11-23T04:21:44;75.30;;;31.80;;
24439;SDS011;12618;54.386;18.394;2022-11-23T04:24:14;72.12;;;30.55;;
24439;SDS011;12618;54.386;18.394;2022-11-23T04:26:45;77.12;;;32.28;;
24439;SDS011;12618;54.386;18.394;2022-11-23T04:29:16;74.62;;;31.40;;
24439;SDS011;12618;54.386;18.394;2022-11-23T04:31:46;72.08;;;31.40;;
24439;SDS011;12618;54.386;18.394;2022-11-23T04:34:17;73.55;;;30.68;;
24439;SDS011;12618;54.386;18.394;2022-11-23T04:36:48;71.02;;;31.45;;
24439;SDS011;12618;54.386;18.394;2022-11-23T04:39:18;74.82;;;31.85;;
24439;SDS011;12618;54.386;18.394;2022-11-23T04:41:49;74.30;;;31.57;;
24439;SDS011;12618;54.386;18.394;2022-11-23T04:44:19;73.10;;;30.37;;
24439;SDS011;12618;54.386;18.394;2022-11-23T04:46:50;74.27;;;30.97;;
24439;SDS011;12618;54.386;18.394;2022-11-23T04:49:21;77.60;;;31.73;;
24439;SDS011;12618;54.386;18.394;2022-11-23T04:51:52;70.83;;;30.50;;
24439;SDS011;12618;54.386;18.394;2022-11-23T04:54:22;73.10;;;30.68;;
24439;SDS011;12618;54.386;18.394;2022-11-23T04:56:53;73.80;;;30.77;;
24439;SDS011;12618;54.386;18.394;2022-11-23T04:59:24;73.20;;;30.27;;
24439;SDS011;12618;54.386;18.394;2022-11-23T05:01:54;70.42;;;30.80;;
24439;SDS011;12618;54.386;18.394;2022-11-23T05:04:25;75.00;;;30.92;;
24439;SDS011;12618;54.386;18.394;2022-11-23T05:06:59;74.82;;;30.80;;
24439;SDS011;12618;54.386;18.394;2022-11-23T05:09:30;73.37;;;30.55;;
24439;SDS011;12618;54.386;18.394;2022-11-23T05:12:01;80.00;;;31.37;;
24439;SDS011;12618;54.386;18.394;2022-11-23T05:14:32;78.40;;;31.33;;
24439;SDS011;12618;54.386;18.394;2022-11-23T05:17:02;81.57;;;30.97;;
24439;SDS011;12618;54.386;18.394;2022-11-23T05:19:33;81.67;;;31.37;;
24439;SDS011;12618;54.386;18.394;2022-11-23T05:22:04;82.55;;;32.25;;
24439;SDS011;12618;54.386;18.394;2022-11-23T05:24:35;83.67;;;32.58;;
24439;SDS011;12618;54.386;18.394;2022-11-23T05:27:06;78.02;;;32.35;;
24439;SDS011;12618;54.386;18.394;2022-11-23T05:29:36;81.87;;;33.08;;
24439;SDS011;12618;54.386;18.394;2022-11-23T05:32:07;77.82;;;31.90;;
24439;SDS011;12618;54.386;18.394;2022-11-23T05:34:38;83.42;;;33.13;;
24439;SDS011;12618;54.386;18.394;2022-11-23T05:37:08;88.17;;;32.42;;
24439;SDS011;12618;54.386;18.394;2022-11-23T05:39:39;86.87;;;33.78;;
24439;SDS011;12618;54.386;18.394;2022-11-23T05:42:10;90.03;;;34.08;;
24439;SDS011;12618;54.386;18.394;2022-11-23T05:44:41;85.17;;;33.00;;
24439;SDS011;12618;54.386;18.394;2022-11-23T05:47:12;80.03;;;31.50;;
24439;SDS011;12618;54.386;18.394;2022-11-23T05:49:42;90.57;;;33.00;;
24439;SDS011;12618;54.386;18.394;2022-11-23T05:52:13;91.08;;;31.85;;
24439;SDS011;12618;54.386;18.394;2022-11-23T05:54:44;87.15;;;31.95;;
24439;SDS011;12618;54.386;18.394;2022-11-23T05:57:15;87.33;;;32.93;;
24439;SDS011;12618;54.386;18.394;2022-11-23T05:59:47;100.42;;;32.63;;
24439;SDS011;12618;54.386;18.394;2022-11-23T06:02:18;89.03;;;32.35;;
24439;SDS011;12618;54.386;18.394;2022-11-23T06:04:49;91.40;;;31.30;;
24439;SDS011;12618;54.386;18.394;2022-11-23T06:07:20;116.55;;;31.95;;
24439;SDS011;12618;54.386;18.394;2022-11-23T06:09:50;91.30;;;31.87;;
24439;SDS011;12618;54.386;18.394;2022-11-23T06:12:21;105.35;;;33.67;;
24439;SDS011;12618;54.386;18.394;2022-11-23T06:14:52;112.83;;;33.90;;
24439;SDS011;12618;54.386;18.394;2022-11-23T06:17:23;95.55;;;31.97;;
24439;SDS011;12618;54.386;18.394;2022-11-23T06:19:53;121.20;;;33.95;;
24439;SDS011;12618;54.386;18.394;2022-11-23T06:22:24;140.03;;;33.88;;
24439;SDS011;12618;54.386;18.394;2022-11-23T06:24:55;137.00;;;34.48;;
24439;SDS011;12618;54.386;18.394;2022-11-23T06:27:26;161.92;;;37.30;;
24439;SDS011;12618;54.386;18.394;2022-11-23T06:29:57;154.37;;;34.27;;
24439;SDS011;12618;54.386;18.394;2022-11-23T06:32:27;149.12;;;33.00;;
24439;SDS011;12618;54.386;18.394;2022-11-23T06:34:58;143.90;;;33.98;;
24439;SDS011;12618;54.386;18.394;2022-11-23T06:37:29;153.38;;;35.28;;
24439;SDS011;12618;54.386;18.394;2022-11-23T06:39:59;149.25;;;33.65;;
24439;SDS011;12618;54.386;18.394;2022-11-23T06:42:30;192.22;;;35.98;;
24439;SDS011;12618;54.386;18.394;2022-11-23T06:45:01;141.10;;;35.80;;
24439;SDS011;12618;54.386;18.394;2022-11-23T06:47:32;158.42;;;36.33;;
24439;SDS011;12618;54.386;18.394;2022-11-23T06:50:03;159.27;;;35.43;;
24439;SDS011;12618;54.386;18.394;2022-11-23T06:52:35;113.32;;;35.13;;
24439;SDS011;12618;54.386;18.394;2022-11-23T06:55:06;165.10;;;38.55;;
24439;SDS011;12618;54.386;18.394;2022-11-23T06:57:37;186.85;;;36.60;;
24439;SDS011;12618;54.386;18.394;2022-11-23T07:00:08;166.55;;;36.13;;
24439;SDS011;12618;54.386;18.394;2022-11-23T07:02:40;179.07;;;36.27;;
24439;SDS011;12618;54.386;18.394;2022-11-23T07:05:10;187.62;;;38.17;;
24439;SDS011;12618;54.386;18.394;2022-11-23T07:07:41;283.57;;;43.33;;
24439;SDS011;12618;54.386;18.394;2022-11-23T07:10:12;181.37;;;36.00;;
24439;SDS011;12618;54.386;18.394;2022-11-23T07:12:43;130.57;;;34.05;;
24439;SDS011;12618;54.386;18.394;2022-11-23T07:15:14;138.43;;;34.15;;
24439;SDS011;12618;54.386;18.394;2022-11-23T07:17:45;127.60;;;34.67;;
24439;SDS011;12618;54.386;18.394;2022-11-23T07:20:15;133.32;;;34.15;;
24439;SDS011;12618;54.386;18.394;2022-11-23T07:22:46;136.85;;;34.75;;
24439;SDS011;12618;54.386;18.394;2022-11-23T07:25:17;145.65;;;34.63;;
24439;SDS011;12618;54.386;18.394;2022-11-23T07:27:53;161.30;;;36.53;;
24439;SDS011;12618;54.386;18.394;2022-11-23T07:30:27;117.35;;;36.10;;
24439;SDS011;12618;54.386;18.394;2022-11-23T07:32:59;96.87;;;27.67;;
24439;SDS011;12618;54.386;18.394;2022-11-23T07:35:31;159.07;;;35.10;;
24439;SDS011;12618;54.386;18.394;2022-11-23T07:38:02;132.57;;;33.58;;
24439;SDS011;12618;54.386;18.394;2022-11-23T07:40:35;110.78;;;32.45;;
24439;SDS011;12618;54.386;18.394;2022-11-23T07:43:07;138.03;;;34.10;;
24439;SDS011;12618;54.386;18.394;2022-11-23T07:45:39;136.43;;;32.83;;
24439;SDS011;12618;54.386;18.394;2022-11-23T07:48:09;117.80;;;33.85;;
24439;SDS011;12618;54.386;18.394;2022-11-23T07:50:41;88.12;;;30.85;;
24439;SDS011;12618;54.386;18.394;2022-11-23T07:53:12;92.35;;;32.00;;
24439;SDS011;12618;54.386;18.394;2022-11-23T07:55:43;110.92;;;32.75;;
24439;SDS011;12618;54.386;18.394;2022-11-23T07:58:15;148.87;;;36.63;;
24439;SDS011;12618;54.386;18.394;2022-11-23T08:00:46;159.00;;;36.13;;
24439;SDS011;12618;54.386;18.394;2022-11-23T08:03:17;178.82;;;35.30;;
24439;SDS011;12618;54.386;18.394;2022-11-23T08:05:47;157.67;;;35.00;;
24439;SDS011;12618;54.386;18.394;2022-11-23T08:08:18;118.57;;;33.63;;
24439;SDS011;12618;54.386;18.394;2022-11-23T08:10:48;131.35;;;34.70;;
24439;SDS011;12618;54.386;18.394;2022-11-23T08:13:20;116.93;;;34.50;;
24439;SDS011;12618;54.386;18.394;2022-11-23T08:15:51;103.12;;;33.67;;
24439;SDS011;12618;54.386;18.394;2022-11-23T08:18:22;106.17;;;34.40;;
24439;SDS011;12618;54.386;18.394;2022-11-23T08:20:53;92.92;;;33.70;;
24439;SDS011;12618;54.386;18.394;2022-11-23T08:23:24;131.50;;;36.45;;
24439;SDS011;12618;54.386;18.394;2022-11-23T08:25:55;130.57;;;35.80;;
24439;SDS011;12618;54.386;18.394;2022-11-23T08:28:26;118.00;;;34.25;;
24439;SDS011;12618;54.386;18.394;2022-11-23T08:30:57;103.35;;;34.13;;
24439;SDS011;12618;54.386;18.394;2022-11-23T08:33:28;102.45;;;33.85;;
24439;SDS011;12618;54.386;18.394;2022-11-23T08:36:02;103.53;;;34.05;;
24439;SDS011;12618;54.386;18.394;2022-11-23T08:38:35;96.53;;;34.90;;
24439;SDS011;12618;54.386;18.394;2022-11-23T08:41:06;106.45;;;36.40;;
24439;SDS011;12618;54.386;18.394;2022-11-23T08:43:36;104.53;;;37.20;;
24439;SDS011;12618;54.386;18.394;2022-11-23T08:46:07;111.55;;;35.63;;
24439;SDS011;12618;54.386;18.394;2022-11-23T08:48:38;91.17;;;33.13;;
24439;SDS011;12618;54.386;18.394;2022-11-23T08:51:09;100.87;;;34.65;;
24439;SDS011;12618;54.386;18.394;2022-11-23T08:53:40;94.30;;;34.03;;
24439;SDS011;12618;54.386;18.394;2022-11-23T08:56:12;88.78;;;31.85;;
24439;SDS011;12618;54.386;18.394;2022-11-23T08:58:42;82.95;;;31.23;;
24439;SDS011;12618;54.386;18.394;2022-11-23T09:01:14;100.45;;;33.20;;
24439;SDS011;12618;54.386;18.394;2022-11-23T09:03:46;104.33;;;33.43;;
24439;SDS011;12618;54.386;18.394;2022-11-23T09:06:17;88.17;;;32.78;;
24439;SDS011;12618;54.386;18.394;2022-11-23T09:08:48;83.05;;;32.63;;
24439;SDS011;12618;54.386;18.394;2022-11-23T09:11:18;90.85;;;31.60;;
24439;SDS011;12618;54.386;18.394;2022-11-23T09:13:49;90.10;;;33.35;;
24439;SDS011;12618;54.386;18.394;2022-11-23T09:16:20;87.97;;;33.05;;
24439;SDS011;12618;54.386;18.394;2022-11-23T09:18:54;82.67;;;33.15;;
24439;SDS011;12618;54.386;18.394;2022-11-23T09:21:27;79.30;;;31.97;;
24439;SDS011;12618;54.386;18.394;2022-11-23T09:23:59;86.93;;;33.70;;
24439;SDS011;12618;54.386;18.394;2022-11-23T09:26:30;89.58;;;33.28;;
24439;SDS011;12618;54.386;18.394;2022-11-23T09:29:03;88.40;;;34.38;;
24439;SDS011;12618;54.386;18.394;2022-11-23T09:31:34;92.05;;;34.48;;
24439;SDS011;12618;54.386;18.394;2022-11-23T09:34:05;76.05;;;31.62;;
24439;SDS011;12618;54.386;18.394;2022-11-23T09:36:36;82.00;;;32.95;;
24439;SDS011;12618;54.386;18.394;2022-11-23T09:39:07;83.55;;;32.73;;
24439;SDS011;12618;54.386;18.394;2022-11-23T09:41:53;80.07;;;33.53;;
24439;SDS011;12618;54.386;18.394;2022-11-23T09:52:57;109.25;;;36.38;;
24439;SDS011;12618;54.386;18.394;2022-11-23T09:58:11;89.30;;;35.00;;
24439;SDS011;12618;54.386;18.394;2022-11-23T10:01:02;98.40;;;35.88;;
24439;SDS011;12618;54.386;18.394;2022-11-23T10:03:36;102.53;;;37.60;;
24439;SDS011;12618;54.386;18.394;2022-11-23T10:06:27;89.37;;;36.70;;
24439;SDS011;12618;54.386;18.394;2022-11-23T10:09:07;104.63;;;39.95;;
24439;SDS011;12618;54.386;18.394;2022-11-23T10:14:38;96.63;;;37.05;;
24439;SDS011;12618;54.386;18.394;2022-11-23T10:26:15;101.07;;;40.15;;
24439;SDS011;12618;54.386;18.394;2022-11-23T10:28:48;92.67;;;36.93;;
24439;SDS011;12618;54.386;18.394;2022-11-23T10:31:21;84.37;;;34.18;;
24439;SDS011;12618;54.386;18.394;2022-11-23T10:36:38;82.72;;;33.13;;
24439;SDS011;12618;54.386;18.394;2022-11-23T10:39:20;88.30;;;35.20;;
24439;SDS011;12618;54.386;18.394;2022-11-23T10:41:52;86.30;;;35.03;;
24439;SDS011;12618;54.386;18.394;2022-11-23T10:44:33;97.75;;;38.35;;
24439;SDS011;12618;54.386;18.394;2022-11-23T10:47:07;92.72;;;37.42;;
24439;SDS011;12618;54.386;18.394;2022-11-23T10:49:37;97.92;;;37.95;;
24439;SDS011;12618;54.386;18.394;2022-11-23T10:52:28;95.07;;;39.13;;
24439;SDS011;12618;54.386;18.394;2022-11-23T10:55:01;88.92;;;36.50;;
24439;SDS011;12618;54.386;18.394;2022-11-23T10:57:40;82.47;;;33.83;;
24439;SDS011;12618;54.386;18.394;2022-11-23T11:00:14;76.22;;;32.20;;
24439;SDS011;12618;54.386;18.394;2022-11-23T11:02:54;75.75;;;32.33;;
24439;SDS011;12618;54.386;18.394;2022-11-23T11:10:49;74.12;;;31.62;;
24439;SDS011;12618;54.386;18.394;2022-11-23T11:13:50;74.10;;;31.95;;
24439;SDS011;12618;54.386;18.394;2022-11-23T11:16:21;77.45;;;31.30;;
24439;SDS011;12618;54.386;18.394;2022-11-23T11:19:19;69.10;;;30.25;;
24439;SDS011;12618;54.386;18.394;2022-11-23T11:21:52;73.10;;;30.97;;
24439;SDS011;12618;54.386;18.394;2022-11-23T11:24:30;74.32;;;30.52;;
24439;SDS011;12618;54.386;18.394;2022-11-23T11:27:04;74.30;;;31.87;;
24439;SDS011;12618;54.386;18.394;2022-11-23T11:29:38;75.40;;;32.33;;
24439;SDS011;12618;54.386;18.394;2022-11-23T11:37:59;74.17;;;32.08;;
24439;SDS011;12618;54.386;18.394;2022-11-23T11:40:33;77.47;;;32.20;;
24439;SDS011;12618;54.386;18.394;2022-11-23T11:46:00;75.57;;;30.20;;
24439;SDS011;12618;54.386;18.394;2022-11-23T11:48:39;73.12;;;31.15;;
24439;SDS011;12618;54.386;18.394;2022-11-23T11:51:12;76.67;;;31.97;;
24439;SDS011;12618;54.386;18.394;2022-11-23T11:53:49;76.77;;;31.80;;
24439;SDS011;12618;54.386;18.394;2022-11-23T11:56:36;82.35;;;35.68;;
24439;SDS011;12618;54.386;18.394;2022-11-23T12:10:53;68.62;;;29.80;;
24439;SDS011;12618;54.386;18.394;2022-11-23T12:13:35;69.72;;;31.35;;
24439;SDS011;12618;54.386;18.394;2022-11-23T12:19:18;77.60;;;34.60;;
24439;SDS011;12618;54.386;18.394;2022-11-23T12:22:13;74.53;;;33.38;;
24439;SDS011;12618;54.386;18.394;2022-11-23T12:28:42;72.20;;;29.65;;
24439;SDS011;12618;54.386;18.394;2022-11-23T12:50:42;67.45;;;28.60;;
24439;SDS011;12618;54.386;18.394;2022-11-23T12:58:55;66.57;;;29.18;;
24439;SDS011;12618;54.386;18.394;2022-11-23T13:01:35;65.28;;;27.98;;
24439;SDS011;12618;54.386;18.394;2022-11-23T13:18:35;72.32;;;34.15;;
24439;SDS011;12618;54.386;18.394;2022-11-23T13:21:21;69.70;;;32.53;;
24439;SDS011;12618;54.386;18.394;2022-11-23T13:23:57;67.10;;;30.35;;
24439;SDS011;12618;54.386;18.394;2022-11-23T13:26:29;67.10;;;31.07;;
24439;SDS011;12618;54.386;18.394;2022-11-23T13:29:44;58.83;;;28.60;;
24439;SDS011;12618;54.386;18.394;2022-11-23T13:31:37;66.00;;;29.87;;
24439;SDS011;12618;54.386;18.394;2022-11-23T13:34:41;75.10;;;33.23;;
24439;SDS011;12618;54.386;18.394;2022-11-23T13:36:42;71.75;;;33.18;;
24439;SDS011;12618;54.386;18.394;2022-11-23T13:42:14;60.88;;;28.25;;
24439;SDS011;12618;54.386;18.394;2022-11-23T13:44:46;63.02;;;29.10;;
24439;SDS011;12618;54.386;18.394;2022-11-23T13:47:17;67.10;;;32.73;;
24439;SDS011;12618;54.386;18.394;2022-11-23T13:49:50;68.97;;;32.40;;
24439;SDS011;12618;54.386;18.394;2022-11-23T13:52:26;68.62;;;32.53;;
24439;SDS011;12618;54.386;18.394;2022-11-23T13:57:43;67.90;;;32.88;;
24439;SDS011;12618;54.386;18.394;2022-11-23T14:11:47;64.70;;;30.72;;
24439;SDS011;12618;54.386;18.394;2022-11-23T14:14:22;65.10;;;30.05;;
24439;SDS011;12618;54.386;18.394;2022-11-23T14:17:01;68.25;;;31.52;;
24439;SDS011;12618;54.386;18.394;2022-11-23T14:19:56;66.75;;;33.33;;
24439;SDS011;12618;54.386;18.394;2022-11-23T14:22:32;68.33;;;31.40;;
24439;SDS011;12618;54.386;18.394;2022-11-23T14:25:25;73.83;;;34.33;;
24439;SDS011;12618;54.386;18.394;2022-11-23T14:28:00;66.97;;;32.73;;
24439;SDS011;12618;54.386;18.394;2022-11-23T14:30:40;70.32;;;32.42;;
24439;SDS011;12618;54.386;18.394;2022-11-23T14:41:26;76.22;;;33.45;;
24439;SDS011;12618;54.386;18.394;2022-11-23T14:43:59;73.20;;;34.43;;
24439;SDS011;12618;54.386;18.394;2022-11-23T14:46:30;75.97;;;34.45;;
24439;SDS011;12618;54.386;18.394;2022-11-23T14:49:03;75.45;;;34.35;;
24439;SDS011;12618;54.386;18.394;2022-11-23T14:51:35;83.52;;;38.28;;
24439;SDS011;12618;54.386;18.394;2022-11-23T14:54:10;80.65;;;36.83;;
24439;SDS011;12618;54.386;18.394;2022-11-23T14:56:42;71.28;;;32.23;;
24439;SDS011;12618;54.386;18.394;2022-11-23T15:01:52;80.03;;;31.93;;
24439;SDS011;12618;54.386;18.394;2022-11-23T15:04:26;76.02;;;32.23;;
24439;SDS011;12618;54.386;18.394;2022-11-23T15:07:02;72.72;;;31.93;;
24439;SDS011;12618;54.386;18.394;2022-11-23T15:09:50;76.10;;;33.30;;
24439;SDS011;12618;54.386;18.394;2022-11-23T15:12:41;70.47;;;31.25;;
24439;SDS011;12618;54.386;18.394;2022-11-23T15:17:54;73.52;;;32.95;;
24439;SDS011;12618;54.386;18.394;2022-11-23T15:20:28;71.22;;;32.38;;
24439;SDS011;12618;54.386;18.394;2022-11-23T15:23:04;75.37;;;34.40;;
24439;SDS011;12618;54.386;18.394;2022-11-23T15:25:34;81.72;;;36.65;;
24439;SDS011;12618;54.386;18.394;2022-11-23T15:28:10;74.15;;;34.53;;
24439;SDS011;12618;54.386;18.394;2022-11-23T15:30:40;69.95;;;31.60;;
24439;SDS011;12618;54.386;18.394;2022-11-23T15:33:10;62.55;;;29.55;;
24439;SDS011;12618;54.386;18.394;2022-11-23T15:35:41;73.92;;;36.30;;
24439;SDS011;12618;54.386;18.394;2022-11-23T15:38:12;70.83;;;33.35;;
24439;SDS011;12618;54.386;18.394;2022-11-23T15:40:45;72.73;;;33.43;;
24439;SDS011;12618;54.386;18.394;2022-11-23T15:43:18;70.57;;;32.08;;
24439;SDS011;12618;54.386;18.394;2022-11-23T15:48:30;74.85;;;32.33;;
24439;SDS011;12618;54.386;18.394;2022-11-23T15:51:06;66.35;;;29.32;;
24439;SDS011;12618;54.386;18.394;2022-11-23T15:56:21;69.30;;;30.32;;
24439;SDS011;12618;54.386;18.394;2022-11-23T15:58:54;63.55;;;29.35;;
24439;SDS011;12618;54.386;18.394;2022-11-23T16:01:26;65.55;;;28.90;;
24439;SDS011;12618;54.386;18.394;2022-11-23T16:03:58;65.62;;;28.95;;
24439;SDS011;12618;54.386;18.394;2022-11-23T16:06:39;70.05;;;28.57;;
24439;SDS011;12618;54.386;18.394;2022-11-23T16:18:18;73.92;;;33.50;;
24439;SDS011;12618;54.386;18.394;2022-11-23T16:20:56;79.75;;;33.90;;
24439;SDS011;12618;54.386;18.394;2022-11-23T16:26:16;79.62;;;31.07;;
24439;SDS011;12618;54.386;18.394;2022-11-23T16:28:54;77.53;;;31.77;;
24439;SDS011;12618;54.386;18.394;2022-11-23T16:31:34;72.50;;;33.08;;
24439;SDS011;12618;54.386;18.394;2022-11-23T16:34:16;82.35;;;32.95;;
24439;SDS011;12618;54.386;18.394;2022-11-23T16:36:48;79.80;;;34.25;;
24439;SDS011;12618;54.386;18.394;2022-11-23T16:39:19;74.42;;;31.62;;
24439;SDS011;12618;54.386;18.394;2022-11-23T16:41:53;78.42;;;31.93;;
24439;SDS011;12618;54.386;18.394;2022-11-23T16:44:28;79.22;;;32.65;;
24439;SDS011;12618;54.386;18.394;2022-11-23T16:47:16;83.22;;;33.75;;
24439;SDS011;12618;54.386;18.394;2022-11-23T16:49:52;77.60;;;31.20;;
24439;SDS011;12618;54.386;18.394;2022-11-23T16:52:23;76.22;;;30.88;;
24439;SDS011;12618;54.386;18.394;2022-11-23T16:54:54;88.65;;;34.10;;
24439;SDS011;12618;54.386;18.394;2022-11-23T16:57:29;89.77;;;34.08;;
24439;SDS011;12618;54.386;18.394;2022-11-23T17:00:04;100.12;;;35.48;;
24439;SDS011;12618;54.386;18.394;2022-11-23T17:02:37;96.05;;;36.23;;
24439;SDS011;12618;54.386;18.394;2022-11-23T17:05:18;90.80;;;34.38;;
24439;SDS011;12618;54.386;18.394;2022-11-23T17:07:52;90.80;;;33.65;;
24439;SDS011;12618;54.386;18.394;2022-11-23T17:10:23;90.92;;;32.48;;
24439;SDS011;12618;54.386;18.394;2022-11-23T17:12:54;85.35;;;33.13;;